createdAt,value
2023-01-18T00:01:38.413Z,101851.88
2023-01-18T00:04:08.993Z,101854.66
2023-01-18T00:06:39.594Z,101851.03
2023-01-18T00:09:10.187Z,101848.22
2023-01-18T00:11:41.059Z,101849.38
2023-01-18T00:14:13.246Z,101852.16
2023-01-18T00:16:43.653Z,101850.50
2023-01-18T00:19:15.977Z,101846.91
2023-01-18T00:21:45.931Z,101837.66
2023-01-18T00:24:17.010Z,101848.03
2023-01-18T00:26:47.436Z,101846.06
2023-01-18T00:29:19.647Z,101840.47
2023-01-18T00:31:49.800Z,101830.44
2023-01-18T00:34:20.343Z,101840.47
2023-01-18T00:36:51.780Z,101832.06
2023-01-18T00:39:22.245Z,101848.03
2023-01-18T00:42:05.429Z,101847.22
2023-01-18T00:44:37.834Z,101839.13
2023-01-18T00:47:07.646Z,101834.66
2023-01-18T00:49:37.320Z,101831.88
2023-01-18T00:52:07.912Z,101829.41
2023-01-18T00:54:37.913Z,101832.53
2023-01-18T00:57:08.014Z,101821.34
2023-01-18T00:59:39.491Z,101823.28
2023-01-18T01:02:10.049Z,101825.28
2023-01-18T01:04:57.181Z,101827.22
2023-01-18T01:07:27.793Z,101821.13
2023-01-18T01:09:58.374Z,101820.31
2023-01-18T01:12:45.437Z,101816.69
2023-01-18T01:15:34.054Z,101819.78
2023-01-18T01:18:21.041Z,101819.25
2023-01-18T01:21:07.980Z,101819.91
2023-01-18T01:23:54.904Z,101810.69
2023-01-18T01:26:25.090Z,101814.94
2023-01-18T01:28:55.999Z,101801.78
2023-01-18T01:31:28.527Z,101801.78
2023-01-18T01:33:58.967Z,101804.56
2023-01-18T01:36:29.038Z,101801.78
2023-01-18T01:38:59.386Z,101797.34
2023-01-18T01:41:32.339Z,101799.31
2023-01-18T01:44:05.305Z,101791.25
2023-01-18T01:46:49.244Z,101796.84
2023-01-18T01:49:24.915Z,101794.34
2023-01-18T01:51:59.825Z,101791.88
2023-01-18T01:54:37.555Z,101788.25
2023-01-18T01:57:11.699Z,101788.25
2023-01-18T01:59:53.487Z,101794.97
2023-01-18T02:02:25.570Z,101791.66
2023-01-18T02:04:58.510Z,101798.72
2023-01-18T02:07:29.702Z,101791.75
2023-01-18T02:10:02.709Z,101794.06
2023-01-18T02:12:35.390Z,101799.44
2023-01-18T02:15:07.002Z,101804.53
2023-01-18T02:18:04.277Z,101804.81
2023-01-18T02:21:15.176Z,101795.09
2023-01-18T02:24:37.591Z,101795.72
2023-01-18T02:27:09.291Z,101799.34
2023-01-18T02:30:24.466Z,101800.50
2023-01-18T02:33:09.099Z,101794.06
2023-01-18T02:35:53.208Z,101798.03
2023-01-18T02:38:28.288Z,101804.75
2023-01-18T02:41:15.496Z,101804.41
2023-01-18T02:44:04.714Z,101803.91
2023-01-18T02:46:39.069Z,101804.19
2023-01-18T02:49:14.028Z,101809.78
2023-01-18T02:51:44.289Z,101811.72
2023-01-18T02:54:25.327Z,101815.38
2023-01-18T02:56:57.753Z,101818.47
2023-01-18T02:59:39.940Z,101821.28
2023-01-18T03:02:17.242Z,101823.53
2023-01-18T03:04:56.416Z,101827.75
2023-01-18T03:07:32.238Z,101813.31
2023-01-18T03:10:06.212Z,101824.75
2023-01-18T03:12:48.307Z,101827.88
2023-01-18T03:15:29.046Z,101831.81
2023-01-18T03:18:09.002Z,101837.19
2023-01-18T03:20:45.462Z,101833.88
2023-01-18T03:23:40.347Z,101839.25
2023-01-18T03:26:15.032Z,101838.53
2023-01-18T03:29:07.268Z,101841.41
2023-01-18T03:32:01.672Z,101840.97
2023-01-18T03:34:41.007Z,101836.97
2023-01-18T03:37:19.361Z,101843.75
2023-01-18T03:39:54.361Z,101837.44
2023-01-18T03:42:29.248Z,101840.00
2023-01-18T03:45:08.328Z,101841.13
2023-01-18T03:47:39.084Z,101846.19
2023-01-18T03:50:12.719Z,101848.97
2023-01-18T03:52:49.607Z,101855.41
2023-01-18T03:55:28.009Z,101857.88
2023-01-18T03:58:03.505Z,101861.53
2023-01-18T04:00:34.340Z,101862.03
2023-01-18T04:03:04.680Z,101871.22
2023-01-18T04:05:37.534Z,101867.59
2023-01-18T04:08:08.199Z,101877.13
2023-01-18T04:10:38.359Z,101875.47
2023-01-18T04:13:08.729Z,101881.06
2023-01-18T04:15:38.616Z,101891.09
2023-01-18T04:18:08.994Z,101883.53
2023-01-18T04:20:41.426Z,101891.59
2023-01-18T04:23:11.764Z,101893.25
2023-01-18T04:25:46.225Z,101891.81
2023-01-18T04:28:16.794Z,101900.69
2023-01-18T04:30:47.244Z,101901.56
2023-01-18T04:33:18.847Z,101903.22
2023-01-18T04:35:54.415Z,101911.28
2023-01-18T04:38:25.514Z,101908.16
2023-01-18T04:40:55.815Z,101910.94
2023-01-18T04:43:25.803Z,101912.59
2023-01-18T04:45:56.662Z,101916.25
2023-01-18T04:48:28.028Z,101917.91
2023-01-18T04:51:00.663Z,101919.53
2023-01-18T04:53:31.060Z,101919.53
2023-01-18T04:56:01.484Z,101930.69
2023-01-18T04:58:31.960Z,101928.75
2023-01-18T05:01:04.446Z,101925.97
2023-01-18T05:03:38.590Z,101930.41
2023-01-18T05:06:14.291Z,101923.69
2023-01-18T05:08:45.650Z,101933.75
2023-01-18T05:11:18.310Z,101926.19
2023-01-18T05:13:50.334Z,101923.38
2023-01-18T05:16:24.919Z,101939.81
2023-01-18T05:18:55.499Z,101934.56
2023-01-18T05:21:28.981Z,101936.22
2023-01-18T05:23:59.494Z,101928.06
2023-01-18T05:26:29.971Z,101931.59
2023-01-18T05:29:01.554Z,101938.72
2023-01-18T05:31:32.858Z,101943.91
2023-01-18T05:34:03.171Z,101936.00
2023-01-18T05:36:35.523Z,101936.41
2023-01-18T05:39:06.062Z,101943.59
2023-01-18T05:41:36.351Z,101940.19
2023-01-18T05:44:07.282Z,101938.72
2023-01-18T05:46:37.833Z,101935.31
2023-01-18T05:49:08.073Z,101939.78
2023-01-18T05:51:40.780Z,101942.25
2023-01-18T05:54:10.490Z,101945.03
2023-01-18T05:56:41.296Z,101946.72
2023-01-18T05:59:11.483Z,101944.44
2023-01-18T06:01:41.847Z,101945.25
2023-01-18T06:04:11.718Z,101955.00
2023-01-18T06:06:43.818Z,101944.03
2023-01-18T06:09:14.458Z,101949.50
2023-01-18T06:11:44.335Z,101952.41
2023-01-18T06:14:15.028Z,101951.56
2023-01-18T06:16:45.530Z,101953.66
2023-01-18T06:19:15.684Z,101955.91
2023-01-18T06:21:48.134Z,101957.50
2023-01-18T06:24:18.611Z,101960.69
2023-01-18T06:26:49.120Z,101956.66
2023-01-18T06:29:19.343Z,101959.31
2023-01-18T06:31:49.697Z,101958.13
2023-01-18T06:34:20.399Z,101964.78
2023-01-18T06:36:51.645Z,101966.88
2023-01-18T06:39:22.016Z,101968.94
2023-01-18T06:41:51.912Z,101969.81
2023-01-18T06:44:22.037Z,101974.25
2023-01-18T06:46:51.804Z,101979.06
2023-01-18T06:49:21.629Z,101976.22
2023-01-18T06:51:53.675Z,101964.53
2023-01-18T06:54:24.179Z,101968.44
2023-01-18T06:56:54.240Z,101971.47
2023-01-18T06:59:24.574Z,101966.03
2023-01-18T07:01:54.960Z,101971.84
2023-01-18T07:04:25.812Z,101967.19
2023-01-18T07:06:58.136Z,101965.66
2023-01-18T07:09:28.378Z,101967.28
2023-01-18T07:11:58.504Z,101975.34
2023-01-18T07:14:29.278Z,101969.28
2023-01-18T07:16:59.905Z,101964.34
2023-01-18T07:19:29.641Z,101962.63
2023-01-18T07:22:02.067Z,101960.75
2023-01-18T07:24:32.702Z,101960.47
2023-01-18T07:27:03.811Z,101959.38
2023-01-18T07:29:34.379Z,101957.59
2023-01-18T07:32:04.412Z,101960.94
2023-01-18T07:34:34.153Z,101954.97
2023-01-18T07:37:05.895Z,101956.31
2023-01-18T07:39:35.855Z,101954.34
2023-01-18T07:42:06.368Z,101961.66
2023-01-18T07:44:36.879Z,101956.00
2023-01-18T07:47:08.413Z,101950.47
2023-01-18T07:49:38.266Z,101954.19
2023-01-18T07:52:10.741Z,101941.25
2023-01-18T07:54:40.531Z,101934.81
2023-01-18T07:57:10.272Z,101935.22
2023-01-18T07:59:40.438Z,101940.44
2023-01-18T08:02:13.100Z,101931.13
2023-01-18T08:04:43.684Z,101928.66
2023-01-18T08:07:16.092Z,101931.47
2023-01-18T08:09:47.129Z,101928.59
2023-01-18T08:12:19.070Z,101922.38
2023-01-18T08:14:49.659Z,101921.84
2023-01-18T08:17:20.400Z,101915.22
2023-01-18T08:19:50.776Z,101907.31
2023-01-18T08:22:25.734Z,101886.75
2023-01-18T08:24:56.624Z,101898.22
2023-01-18T08:27:27.404Z,101907.22
2023-01-18T08:29:57.947Z,101899.56
2023-01-18T08:32:29.280Z,101894.75
2023-01-18T08:35:00.989Z,101888.41
2023-01-18T08:37:34.073Z,101886.09
2023-01-18T08:40:04.566Z,101884.63
2023-01-18T08:42:35.061Z,101872.56
2023-01-18T08:45:05.830Z,101874.78
2023-01-18T08:47:36.377Z,101870.88
2023-01-18T08:50:08.010Z,101877.53
2023-01-18T08:52:40.115Z,101875.66
2023-01-18T08:55:11.432Z,101865.19
2023-01-18T08:57:41.835Z,101870.13
2023-01-18T09:00:14.618Z,101862.41
2023-01-18T09:02:45.099Z,101861.59
2023-01-18T09:05:14.902Z,101856.19
2023-01-18T09:07:47.845Z,101845.47
2023-01-18T09:10:18.649Z,101852.66
2023-01-18T09:12:49.045Z,101843.56
2023-01-18T09:15:19.835Z,101838.03
2023-01-18T09:17:50.094Z,101830.09
2023-01-18T09:20:23.412Z,101822.63
2023-01-18T09:22:56.145Z,101825.25
2023-01-18T09:25:26.839Z,101818.16
2023-01-18T09:27:57.286Z,101822.00
2023-01-18T09:30:27.765Z,101814.09
2023-01-18T09:32:59.725Z,101810.22
2023-01-18T09:35:29.875Z,101802.31
2023-01-18T09:38:01.196Z,101800.88
2023-01-18T09:40:46.616Z,101801.06
2023-01-18T09:43:29.565Z,101785.44
2023-01-18T09:46:00.316Z,101790.00
2023-01-18T09:48:36.359Z,101781.69
2023-01-18T09:51:23.159Z,101776.97
2023-01-18T09:54:13.533Z,101781.56
2023-01-18T09:56:58.427Z,101775.25
2023-01-18T09:59:37.510Z,101777.91
2023-01-18T10:02:24.441Z,101767.53
2023-01-18T10:05:00.513Z,101762.44
2023-01-18T10:07:36.496Z,101767.09
2023-01-18T10:10:19.822Z,101758.75
2023-01-18T10:12:58.919Z,101759.69
2023-01-18T10:15:36.972Z,101757.44
2023-01-18T10:18:07.622Z,101753.44
2023-01-18T10:20:49.936Z,101765.28
2023-01-18T10:23:32.240Z,101751.16
2023-01-18T10:26:11.673Z,101753.75
2023-01-18T10:28:57.500Z,101750.63
2023-01-18T10:31:46.134Z,101738.66
2023-01-18T10:34:22.812Z,101738.88
2023-01-18T10:36:58.446Z,101740.69
2023-01-18T10:39:40.065Z,101752.66
2023-01-18T10:42:22.699Z,101749.56
2023-01-18T10:44:53.504Z,101743.25
2023-01-18T10:47:27.056Z,101745.03
2023-01-18T10:50:02.502Z,101745.69
2023-01-18T10:52:34.963Z,101749.88
2023-01-18T10:55:07.993Z,101737.88
2023-01-18T10:57:48.985Z,101746.53
2023-01-18T11:00:26.853Z,101745.06
2023-01-18T11:03:00.465Z,101735.44
2023-01-18T11:05:37.903Z,101736.41
2023-01-18T11:08:24.754Z,101731.34
2023-01-18T11:11:05.196Z,101727.88
2023-01-18T11:13:45.682Z,101727.28
2023-01-18T11:16:19.598Z,101733.22
2023-01-18T11:19:03.012Z,101731.47
2023-01-18T11:21:49.983Z,101735.34
2023-01-18T11:24:32.150Z,101734.31
2023-01-18T11:27:06.404Z,101734.81
2023-01-18T11:29:46.689Z,101734.88
2023-01-18T11:32:26.808Z,101730.22
2023-01-18T11:35:00.399Z,101724.72
2023-01-18T11:37:36.781Z,101722.47
2023-01-18T11:40:29.226Z,101725.88
2023-01-18T11:43:04.806Z,101721.31
2023-01-18T11:45:45.396Z,101718.84
2023-01-18T11:48:30.704Z,101728.00
2023-01-18T11:51:08.772Z,101733.16
2023-01-18T11:53:50.965Z,101729.88
2023-01-18T11:56:34.890Z,101729.41
2023-01-18T11:59:11.851Z,101736.56
2023-01-18T12:02:37.753Z,101727.88
2023-01-18T12:05:47.716Z,101734.75
2023-01-18T12:08:49.924Z,101728.53
2023-01-18T12:11:50.995Z,101735.94
2023-01-18T12:14:45.218Z,101733.22
2023-01-18T12:17:40.526Z,101735.06
2023-01-18T12:20:30.560Z,101743.09
2023-01-18T12:23:44.507Z,101741.06
2023-01-18T12:26:44.161Z,101736.97
2023-01-18T12:29:39.471Z,101746.59
2023-01-18T12:32:32.294Z,101748.13
2023-01-18T12:35:30.552Z,101731.53
2023-01-18T12:38:16.397Z,101739.19
2023-01-18T12:41:52.798Z,101740.22
2023-01-18T12:45:01.565Z,101739.25
2023-01-18T12:47:42.543Z,101735.97
2023-01-18T12:50:25.261Z,101751.25
2023-01-18T12:53:02.495Z,101739.50
2023-01-18T12:55:37.992Z,101741.47
2023-01-18T12:58:19.298Z,101740.53
2023-01-18T13:00:55.763Z,101746.84
2023-01-18T13:03:32.157Z,101739.94
2023-01-18T13:06:12.347Z,101740.59
2023-01-18T13:08:49.649Z,101739.66
2023-01-18T13:11:26.475Z,101741.16
2023-01-18T13:14:10.985Z,101741.16
2023-01-18T13:16:52.252Z,101741.03
2023-01-18T13:19:29.650Z,101733.25
2023-01-18T13:22:16.210Z,101733.59
2023-01-18T13:25:14.345Z,101737.94
2023-01-18T13:28:01.678Z,101740.63
2023-01-18T13:30:47.169Z,101724.78
2023-01-18T13:33:18.628Z,101728.75
2023-01-18T13:35:57.458Z,101725.59
2023-01-18T13:38:40.952Z,101728.75
2023-01-18T13:41:15.500Z,101720.63
2023-01-18T13:44:10.038Z,101722.66
2023-01-18T13:46:42.856Z,101722.16
2023-01-18T13:49:50.184Z,101726.50
2023-01-18T13:52:35.923Z,101720.88
2023-01-18T13:55:31.633Z,101727.66
2023-01-18T13:58:02.369Z,101727.19
2023-01-18T14:00:36.210Z,101718.72
2023-01-18T14:03:19.123Z,101723.56
2023-01-18T14:05:52.134Z,101727.53
2023-01-18T14:08:26.303Z,101718.59
2023-01-18T14:11:04.391Z,101721.78
2023-01-18T14:14:24.783Z,101722.09
2023-01-18T14:17:09.656Z,101716.03
2023-01-18T14:20:42.132Z,101720.66
2023-01-18T14:23:57.529Z,101725.31
2023-01-18T14:26:32.716Z,101724.38
2023-01-18T14:29:08.324Z,101721.91
2023-01-18T14:31:43.068Z,101737.16
2023-01-18T14:34:38.779Z,101733.50
2023-01-18T14:37:33.173Z,101737.00
2023-01-18T14:40:20.151Z,101735.38
2023-01-18T14:42:56.756Z,101737.66
2023-01-18T14:45:35.517Z,101730.03
2023-01-18T14:48:13.114Z,101737.19
2023-01-18T14:50:47.185Z,101745.13
2023-01-18T14:53:23.930Z,101735.88
2023-01-18T14:56:12.082Z,101741.38
2023-01-18T14:58:44.115Z,101742.84
2023-01-18T15:01:31.438Z,101746.38
2023-01-18T15:04:03.926Z,101735.44
2023-01-18T15:06:42.842Z,101741.41
2023-01-18T15:09:16.289Z,101740.13
2023-01-18T15:11:48.280Z,101746.06
2023-01-18T15:14:22.503Z,101748.06
2023-01-18T15:16:57.753Z,101745.13
2023-01-18T15:19:38.958Z,101742.63
2023-01-18T15:22:12.908Z,101756.53
2023-01-18T15:24:48.101Z,101744.00
2023-01-18T15:27:21.471Z,101760.38
2023-01-18T15:29:54.754Z,101760.72
2023-01-18T15:32:28.583Z,101761.03
2023-01-18T15:35:00.911Z,101764.22
2023-01-18T15:37:34.586Z,101769.03
2023-01-18T15:40:26.231Z,101780.13
2023-01-18T15:43:09.427Z,101769.19
2023-01-18T15:45:44.180Z,101779.94
2023-01-18T15:48:22.495Z,101779.13
2023-01-18T15:50:56.302Z,101776.19
2023-01-18T15:53:34.944Z,101780.16
2023-01-18T15:56:10.607Z,101784.13
2023-01-18T15:58:47.090Z,101785.28
2023-01-18T16:01:25.281Z,101780.00
2023-01-18T16:04:00.990Z,101785.94
2023-01-18T16:06:40.965Z,101796.72
2023-01-18T16:09:23.952Z,101797.88
2023-01-18T16:11:58.695Z,101805.81
2023-01-18T16:14:37.885Z,101809.78
2023-01-18T16:17:15.906Z,101813.75
2023-01-18T16:19:50.588Z,101819.72
2023-01-18T16:22:25.631Z,101819.72
2023-01-18T16:25:00.312Z,101822.81
2023-01-18T16:27:52.697Z,101820.34
2023-01-18T16:30:28.034Z,101829.13
2023-01-18T16:33:09.797Z,101825.47
2023-01-18T16:35:42.395Z,101839.03
2023-01-18T16:38:18.928Z,101835.41
2023-01-18T16:40:51.700Z,101836.56
2023-01-18T16:43:29.732Z,101840.88
2023-01-18T16:46:01.500Z,101846.84
2023-01-18T16:48:34.079Z,101846.84
2023-01-18T16:51:07.890Z,101854.44
2023-01-18T16:53:38.547Z,101851.97
2023-01-18T16:56:09.903Z,101854.28
2023-01-18T16:58:42.107Z,101853.78
2023-01-18T17:01:16.675Z,101845.69
2023-01-18T17:03:47.130Z,101848.00
2023-01-18T17:06:22.827Z,101852.47
2023-01-18T17:08:53.155Z,101843.91
2023-01-18T17:11:23.460Z,101856.28
2023-01-18T17:13:55.303Z,101853.47
2023-01-18T17:16:25.527Z,101861.41
2023-01-18T17:18:55.808Z,101865.38
2023-01-18T17:21:25.319Z,101856.44
2023-01-18T17:23:55.316Z,101860.41
2023-01-18T17:26:25.856Z,101861.59
2023-01-18T17:28:59.248Z,101866.38
2023-01-18T17:31:30.496Z,101856.63
2023-01-18T17:34:01.469Z,101856.97
2023-01-18T17:36:31.565Z,101862.09
2023-01-18T17:39:01.982Z,101864.06
2023-01-18T17:41:32.736Z,101862.75
2023-01-18T17:44:06.233Z,101855.47
2023-01-18T17:46:37.856Z,101854.97
2023-01-18T17:49:07.848Z,101862.94
2023-01-18T17:51:39.018Z,101866.91
2023-01-18T17:54:13.359Z,101864.41
2023-01-18T17:56:50.980Z,101867.56
2023-01-18T17:59:23.551Z,101865.91
2023-01-18T18:01:54.146Z,101864.59
2023-01-18T18:04:24.555Z,101866.88
2023-01-18T18:06:58.917Z,101863.56
2023-01-18T18:09:39.754Z,101871.19
2023-01-18T18:12:11.572Z,101869.88
2023-01-18T18:14:43.835Z,101863.75
2023-01-18T18:17:14.362Z,101865.72
2023-01-18T18:19:44.914Z,101865.22
2023-01-18T18:22:14.732Z,101866.72
2023-01-18T18:24:45.504Z,101863.09
2023-01-18T18:27:16.279Z,101865.38
2023-01-18T18:29:49.158Z,101862.06
2023-01-18T18:32:20.610Z,101867.19
2023-01-18T18:34:51.086Z,101865.53
2023-01-18T18:37:21.660Z,101865.06
2023-01-18T18:39:52.417Z,101866.19
2023-01-18T18:42:33.872Z,101862.91
2023-01-18T18:45:06.234Z,101863.22
2023-01-18T18:47:42.385Z,101870.31
2023-01-18T18:50:13.812Z,101869.84
2023-01-18T18:52:44.308Z,101868.50
2023-01-18T18:55:14.316Z,101876.09
2023-01-18T18:57:44.055Z,101875.59
2023-01-18T19:00:18.211Z,101875.94
2023-01-18T19:02:49.231Z,101870.63
2023-01-18T19:05:19.861Z,101878.56
2023-01-18T19:07:51.260Z,101872.47
2023-01-18T19:10:24.617Z,101874.41
2023-01-18T19:13:08.194Z,101874.75
2023-01-18T19:15:40.189Z,101869.47
2023-01-18T19:18:13.876Z,101872.94
2023-01-18T19:20:44.820Z,101877.72
2023-01-18T19:23:15.586Z,101873.59
2023-01-18T19:25:46.408Z,101874.72
2023-01-18T19:28:18.125Z,101877.06
2023-01-18T19:30:50.331Z,101872.59
2023-01-18T19:33:23.755Z,101874.91
2023-01-18T19:35:54.256Z,101872.44
2023-01-18T19:38:24.608Z,101876.69
2023-01-18T19:40:54.702Z,101879.84
2023-01-18T19:43:25.601Z,101871.75
2023-01-18T19:45:57.813Z,101881.31
2023-01-18T19:48:28.494Z,101889.22
2023-01-18T19:51:20.732Z,101888.38
2023-01-18T19:53:52.614Z,101889.88
2023-01-18T19:56:24.854Z,101889.38
2023-01-18T19:58:54.939Z,101892.16
2023-01-18T20:01:36.236Z,101884.09
2023-01-18T20:04:13.769Z,101886.38
2023-01-18T20:06:48.495Z,101882.25
2023-01-18T20:09:23.396Z,101882.59
2023-01-18T20:11:57.730Z,101880.09
2023-01-18T20:14:36.760Z,101878.44
2023-01-18T20:17:25.701Z,101877.97
2023-01-18T20:19:56.464Z,101875.16
2023-01-18T20:22:27.187Z,101872.63
2023-01-18T20:24:58.062Z,101874.13
2023-01-18T20:27:31.233Z,101872.13
2023-01-18T20:30:01.172Z,101868.00
2023-01-18T20:32:34.745Z,101867.19
2023-01-18T20:35:04.941Z,101865.03
2023-01-18T20:37:35.826Z,101870.97
2023-01-18T20:40:06.503Z,101860.91
2023-01-18T20:42:36.836Z,101869.31
2023-01-18T20:45:08.047Z,101866.00
2023-01-18T20:47:40.658Z,101867.16
2023-01-18T20:50:12.440Z,101863.84
2023-01-18T20:52:43.368Z,101857.75
2023-01-18T20:55:15.239Z,101863.38
2023-01-18T20:57:45.584Z,101862.00
2023-01-18T21:00:19.147Z,101863.16
2023-01-18T21:02:53.258Z,101871.91
2023-01-18T21:05:23.069Z,101855.72
2023-01-18T21:07:53.336Z,101855.25
2023-01-18T21:10:24.304Z,101859.19
2023-01-18T21:12:54.704Z,101858.69
2023-01-18T21:15:24.858Z,101859.00
2023-01-18T21:17:57.326Z,101859.31
2023-01-18T21:20:30.434Z,101857.66
2023-01-18T21:23:02.042Z,101858.00
2023-01-18T21:25:32.836Z,101857.16
2023-01-18T21:28:03.411Z,101853.03
2023-01-18T21:30:33.963Z,101860.28
2023-01-18T21:33:07.709Z,101844.94
2023-01-18T21:35:37.451Z,101837.69
2023-01-18T21:38:08.315Z,101841.66
2023-01-18T21:40:38.965Z,101824.03
2023-01-18T21:43:26.306Z,101822.38
2023-01-18T21:46:00.438Z,101822.19
2023-01-18T21:48:34.122Z,101815.22
2023-01-18T21:51:23.268Z,101815.22
2023-01-18T21:54:16.669Z,101817.84
2023-01-18T21:56:47.830Z,101823.78
2023-01-18T21:59:17.707Z,101814.53
2023-01-18T22:01:49.351Z,101813.72
2023-01-18T22:04:38.213Z,101824.13
2023-01-18T22:07:10.299Z,101814.38
2023-01-18T22:09:40.922Z,101805.47
2023-01-18T22:12:11.792Z,101808.59
2023-01-18T22:14:42.060Z,101809.72
2023-01-18T22:17:13.694Z,101814.81
2023-01-18T22:19:45.940Z,101804.81
2023-01-18T22:22:17.301Z,101803.44
2023-01-18T22:24:47.998Z,101800.97
2023-01-18T22:27:18.840Z,101804.09
2023-01-18T22:29:49.675Z,101806.03
2023-01-18T22:32:20.242Z,101800.25
2023-01-18T22:34:52.711Z,101806.66
2023-01-18T22:37:23.826Z,101803.38
2023-01-18T22:39:54.385Z,101800.88
2023-01-18T22:42:24.886Z,101795.28
2023-01-18T22:44:54.859Z,101796.44
2023-01-18T22:47:24.701Z,101789.22
2023-01-18T22:49:57.277Z,101781.94
2023-01-18T22:52:27.914Z,101786.72
2023-01-18T22:55:02.470Z,101787.03
2023-01-18T22:57:32.955Z,101790.13
2023-01-18T23:00:03.280Z,101790.13
2023-01-18T23:02:35.093Z,101784.06
2023-01-18T23:05:09.399Z,101796.41
2023-01-18T23:07:39.548Z,101791.09
2023-01-18T23:10:11.400Z,101784.69
2023-01-18T23:12:41.547Z,101786.69
2023-01-18T23:15:31.431Z,101787.31
2023-01-18T23:18:10.630Z,101779.56
2023-01-18T23:20:43.709Z,101784.63
2023-01-18T23:23:14.897Z,101789.75
2023-01-18T23:25:45.577Z,101781.97
2023-01-18T23:28:15.888Z,101779.47
2023-01-18T23:30:47.043Z,101766.97
2023-01-18T23:33:18.139Z,101779.31
2023-01-18T23:35:51.075Z,101772.38
2023-01-18T23:38:22.040Z,101772.38
2023-01-18T23:41:09.319Z,101773.00
2023-01-18T23:43:56.454Z,101777.78
2023-01-18T23:46:43.271Z,101768.88
2023-01-18T23:49:30.542Z,101764.44
2023-01-18T23:52:18.851Z,101763.91
2023-01-18T23:54:48.898Z,101769.84
2023-01-18T23:57:18.705Z,101759.78
2023-01-18T23:59:48.636Z,101748.59
